sensor_id;sensor_type;location;lat;lon;timestamp;temperature;humidity
15700;DHT22;7950;42.744;23.174;2023-09-30T00:00:30;13.10;99.90
15700;DHT22;7950;42.744;23.174;2023-09-30T00:03:00;13.10;99.90
15700;DHT22;7950;42.744;23.174;2023-09-30T00:05:29;13.10;99.90
15700;DHT22;7950;42.744;23.174;2023-09-30T00:07:58;13.10;99.90
15700;DHT22;7950;42.744;23.174;2023-09-30T00:10:28;13.20;99.90
15700;DHT22;7950;42.744;23.174;2023-09-30T00:12:58;13.20;99.90
15700;DHT22;7950;42.744;23.174;2023-09-30T00:15:27;13.20;99.90
15700;DHT22;7950;42.744;23.174;2023-09-30T00:17:56;13.20;99.90
15700;DHT22;7950;42.744;23.174;2023-09-30T00:20:24;13.30;99.90
15700;DHT22;7950;42.744;23.174;2023-09-30T00:22:54;13.30;99.90
15700;DHT22;7950;42.744;23.174;2023-09-30T00:25:23;13.40;99.90
15700;DHT22;7950;42.744;23.174;2023-09-30T00:27:53;13.40;99.90
15700;DHT22;7950;42.744;23.174;2023-09-30T00:30:22;13.50;99.90
15700;DHT22;7950;42.744;23.174;2023-09-30T00:32:51;13.50;99.90
15700;DHT22;7950;42.744;23.174;2023-09-30T00:35:19;13.50;99.90
15700;DHT22;7950;42.744;23.174;2023-09-30T00:37:48;13.50;99.90
15700;DHT22;7950;42.744;23.174;2023-09-30T00:40:17;13.60;99.90
15700;DHT22;7950;42.744;23.174;2023-09-30T00:42:45;13.70;99.90
15700;DHT22;7950;42.744;23.174;2023-09-30T00:45:16;13.70;99.90
15700;DHT22;7950;42.744;23.174;2023-09-30T00:47:45;13.70;99.90
15700;DHT22;7950;42.744;23.174;2023-09-30T00:50:14;13.80;99.90
15700;DHT22;7950;42.744;23.174;2023-09-30T00:52:45;13.80;99.90
15700;DHT22;7950;42.744;23.174;2023-09-30T00:55:15;13.80;99.90
15700;DHT22;7950;42.744;23.174;2023-09-30T00:57:45;13.80;99.90
15700;DHT22;7950;42.744;23.174;2023-09-30T01:00:16;13.80;99.90
15700;DHT22;7950;42.744;23.174;2023-09-30T01:02:46;13.90;99.90
15700;DHT22;7950;42.744;23.174;2023-09-30T01:05:16;13.90;99.90
15700;DHT22;7950;42.744;23.174;2023-09-30T01:07:44;13.90;99.90
15700;DHT22;7950;42.744;23.174;2023-09-30T01:10:13;13.80;99.90
15700;DHT22;7950;42.744;23.174;2023-09-30T01:12:43;13.80;99.90
15700;DHT22;7950;42.744;23.174;2023-09-30T01:15:11;13.80;99.90
15700;DHT22;7950;42.744;23.174;2023-09-30T01:17:42;13.70;99.90
15700;DHT22;7950;42.744;23.174;2023-09-30T01:20:12;13.70;99.90
15700;DHT22;7950;42.744;23.174;2023-09-30T01:22:45;13.70;99.90
15700;DHT22;7950;42.744;23.174;2023-09-30T01:25:14;13.70;99.90
15700;DHT22;7950;42.744;23.174;2023-09-30T01:27:44;13.70;99.90
15700;DHT22;7950;42.744;23.174;2023-09-30T01:30:12;13.70;99.90
15700;DHT22;7950;42.744;23.174;2023-09-30T01:32:41;13.70;99.90
15700;DHT22;7950;42.744;23.174;2023-09-30T01:35:10;13.60;99.90
15700;DHT22;7950;42.744;23.174;2023-09-30T01:37:39;13.60;99.90
15700;DHT22;7950;42.744;23.174;2023-09-30T01:40:10;13.60;99.90
15700;DHT22;7950;42.744;23.174;2023-09-30T01:42:39;13.60;99.90
15700;DHT22;7950;42.744;23.174;2023-09-30T01:45:08;13.60;99.90
15700;DHT22;7950;42.744;23.174;2023-09-30T01:47:39;13.50;99.90
15700;DHT22;7950;42.744;23.174;2023-09-30T01:50:09;13.50;99.90
15700;DHT22;7950;42.744;23.174;2023-09-30T01:52:37;13.50;99.90
15700;DHT22;7950;42.744;23.174;2023-09-30T01:55:08;13.50;99.90
15700;DHT22;7950;42.744;23.174;2023-09-30T01:57:38;13.50;99.90
15700;DHT22;7950;42.744;23.174;2023-09-30T02:00:07;13.50;99.90
15700;DHT22;7950;42.744;23.174;2023-09-30T02:02:37;13.50;99.90
15700;DHT22;7950;42.744;23.174;2023-09-30T02:05:06;13.40;99.90
15700;DHT22;7950;42.744;23.174;2023-09-30T02:07:36;13.40;99.90
15700;DHT22;7950;42.744;23.174;2023-09-30T02:10:07;13.40;99.90
15700;DHT22;7950;42.744;23.174;2023-09-30T02:12:38;13.50;99.90
15700;DHT22;7950;42.744;23.174;2023-09-30T02:15:08;13.50;99.90
15700;DHT22;7950;42.744;23.174;2023-09-30T02:17:37;13.40;99.90
15700;DHT22;7950;42.744;23.174;2023-09-30T02:20:08;13.40;99.90
15700;DHT22;7950;42.744;23.174;2023-09-30T02:22:41;13.40;99.90
15700;DHT22;7950;42.744;23.174;2023-09-30T02:25:14;13.40;99.90
15700;DHT22;7950;42.744;23.174;2023-09-30T02:27:43;13.40;99.90
15700;DHT22;7950;42.744;23.174;2023-09-30T02:30:38;13.40;99.90
15700;DHT22;7950;42.744;23.174;2023-09-30T02:33:08;13.40;99.90
15700;DHT22;7950;42.744;23.174;2023-09-30T02:35:37;13.30;99.90
15700;DHT22;7950;42.744;23.174;2023-09-30T02:38:06;13.30;99.90
15700;DHT22;7950;42.744;23.174;2023-09-30T02:40:37;13.20;99.90
15700;DHT22;7950;42.744;23.174;2023-09-30T02:43:07;13.10;99.90
15700;DHT22;7950;42.744;23.174;2023-09-30T02:45:36;13.10;99.90
15700;DHT22;7950;42.744;23.174;2023-09-30T02:48:06;13.00;99.90
15700;DHT22;7950;42.744;23.174;2023-09-30T02:50:35;13.00;99.90
15700;DHT22;7950;42.744;23.174;2023-09-30T02:53:04;13.00;99.90
15700;DHT22;7950;42.744;23.174;2023-09-30T02:55:33;12.90;99.90
15700;DHT22;7950;42.744;23.174;2023-09-30T02:58:03;12.90;99.90
15700;DHT22;7950;42.744;23.174;2023-09-30T03:00:32;12.90;99.90
15700;DHT22;7950;42.744;23.174;2023-09-30T03:03:02;12.90;99.90
15700;DHT22;7950;42.744;23.174;2023-09-30T03:05:31;12.90;99.90
15700;DHT22;7950;42.744;23.174;2023-09-30T03:08:01;12.90;99.90
15700;DHT22;7950;42.744;23.174;2023-09-30T03:10:32;12.80;99.90
15700;DHT22;7950;42.744;23.174;2023-09-30T03:13:03;12.80;99.90
15700;DHT22;7950;42.744;23.174;2023-09-30T03:15:31;12.80;99.90
15700;DHT22;7950;42.744;23.174;2023-09-30T03:18:01;12.80;99.90
15700;DHT22;7950;42.744;23.174;2023-09-30T03:20:30;12.70;99.90
15700;DHT22;7950;42.744;23.174;2023-09-30T03:22:59;12.60;99.90
15700;DHT22;7950;42.744;23.174;2023-09-30T03:25:32;12.50;99.90
15700;DHT22;7950;42.744;23.174;2023-09-30T03:28:01;12.40;99.90
15700;DHT22;7950;42.744;23.174;2023-09-30T03:30:33;12.40;99.90
15700;DHT22;7950;42.744;23.174;2023-09-30T03:33:02;12.30;99.90
15700;DHT22;7950;42.744;23.174;2023-09-30T03:35:33;12.40;99.90
15700;DHT22;7950;42.744;23.174;2023-09-30T03:38:03;12.30;99.90
15700;DHT22;7950;42.744;23.174;2023-09-30T03:40:33;12.30;99.90
15700;DHT22;7950;42.744;23.174;2023-09-30T03:43:10;12.30;99.90
15700;DHT22;7950;42.744;23.174;2023-09-30T03:45:38;12.20;99.90
15700;DHT22;7950;42.744;23.174;2023-09-30T03:48:10;12.20;99.90
15700;DHT22;7950;42.744;23.174;2023-09-30T03:50:40;12.10;99.90
15700;DHT22;7950;42.744;23.174;2023-09-30T03:53:08;12.00;99.90
15700;DHT22;7950;42.744;23.174;2023-09-30T03:56:03;12.00;99.90
15700;DHT22;7950;42.744;23.174;2023-09-30T03:58:34;12.00;99.90
15700;DHT22;7950;42.744;23.174;2023-09-30T04:01:07;12.00;99.90
15700;DHT22;7950;42.744;23.174;2023-09-30T04:03:38;12.00;99.90
15700;DHT22;7950;42.744;23.174;2023-09-30T04:06:09;11.90;99.90
15700;DHT22;7950;42.744;23.174;2023-09-30T04:08:38;12.00;99.90
15700;DHT22;7950;42.744;23.174;2023-09-30T04:11:08;12.00;99.90
15700;DHT22;7950;42.744;23.174;2023-09-30T04:13:43;12.00;99.90
15700;DHT22;7950;42.744;23.174;2023-09-30T04:16:12;12.00;99.90
15700;DHT22;7950;42.744;23.174;2023-09-30T04:18:41;12.00;99.90
15700;DHT22;7950;42.744;23.174;2023-09-30T04:21:10;11.90;99.90
15700;DHT22;7950;42.744;23.174;2023-09-30T04:23:39;11.90;99.90
15700;DHT22;7950;42.744;23.174;2023-09-30T04:26:08;12.00;99.90
15700;DHT22;7950;42.744;23.174;2023-09-30T04:28:37;12.00;99.90
15700;DHT22;7950;42.744;23.174;2023-09-30T04:31:08;12.10;99.90
15700;DHT22;7950;42.744;23.174;2023-09-30T04:33:39;12.10;99.90
15700;DHT22;7950;42.744;23.174;2023-09-30T04:36:08;12.10;99.90
15700;DHT22;7950;42.744;23.174;2023-09-30T04:38:43;12.00;99.90
15700;DHT22;7950;42.744;23.174;2023-09-30T04:41:12;12.00;99.90
15700;DHT22;7950;42.744;23.174;2023-09-30T04:43:43;12.00;99.90
15700;DHT22;7950;42.744;23.174;2023-09-30T04:46:13;12.00;99.90
15700;DHT22;7950;42.744;23.174;2023-09-30T04:48:42;12.00;99.90
15700;DHT22;7950;42.744;23.174;2023-09-30T04:51:41;12.00;99.90
15700;DHT22;7950;42.744;23.174;2023-09-30T04:54:17;12.00;99.90
15700;DHT22;7950;42.744;23.174;2023-09-30T04:56:50;11.90;99.90
15700;DHT22;7950;42.744;23.174;2023-09-30T04:59:20;12.00;99.90
15700;DHT22;7950;42.744;23.174;2023-09-30T05:01:53;12.00;99.90
15700;DHT22;7950;42.744;23.174;2023-09-30T05:04:30;12.00;99.90
15700;DHT22;7950;42.744;23.174;2023-09-30T05:06:59;12.00;99.90
15700;DHT22;7950;42.744;23.174;2023-09-30T05:09:28;12.10;99.90
15700;DHT22;7950;42.744;23.174;2023-09-30T05:11:56;12.10;99.90
15700;DHT22;7950;42.744;23.174;2023-09-30T05:14:26;12.20;99.90
15700;DHT22;7950;42.744;23.174;2023-09-30T05:16:58;12.30;99.90
15700;DHT22;7950;42.744;23.174;2023-09-30T05:19:27;12.40;99.90
15700;DHT22;7950;42.744;23.174;2023-09-30T05:21:57;12.50;99.90
15700;DHT22;7950;42.744;23.174;2023-09-30T05:24:28;12.90;99.90
15700;DHT22;7950;42.744;23.174;2023-09-30T05:27:06;13.40;99.90
15700;DHT22;7950;42.744;23.174;2023-09-30T05:29:36;13.40;99.90
15700;DHT22;7950;42.744;23.174;2023-09-30T05:32:09;13.50;99.90
15700;DHT22;7950;42.744;23.174;2023-09-30T05:34:40;13.60;99.90
15700;DHT22;7950;42.744;23.174;2023-09-30T05:37:15;13.80;99.90
15700;DHT22;7950;42.744;23.174;2023-09-30T05:39:44;13.80;99.90
15700;DHT22;7950;42.744;23.174;2023-09-30T05:42:13;13.90;99.90
15700;DHT22;7950;42.744;23.174;2023-09-30T05:44:43;14.10;99.90
15700;DHT22;7950;42.744;23.174;2023-09-30T05:47:16;14.30;99.90
15700;DHT22;7950;42.744;23.174;2023-09-30T05:49:44;14.50;99.90
15700;DHT22;7950;42.744;23.174;2023-09-30T05:52:13;14.60;99.90
15700;DHT22;7950;42.744;23.174;2023-09-30T05:54:42;14.80;99.90
15700;DHT22;7950;42.744;23.174;2023-09-30T05:57:11;15.00;99.90
15700;DHT22;7950;42.744;23.174;2023-09-30T05:59:42;15.10;99.90
15700;DHT22;7950;42.744;23.174;2023-09-30T06:02:13;15.30;99.90
15700;DHT22;7950;42.744;23.174;2023-09-30T06:04:43;15.40;99.90
15700;DHT22;7950;42.744;23.174;2023-09-30T06:07:13;15.70;99.90
15700;DHT22;7950;42.744;23.174;2023-09-30T06:09:42;15.90;99.90
15700;DHT22;7950;42.744;23.174;2023-09-30T06:12:12;16.10;99.90
15700;DHT22;7950;42.744;23.174;2023-09-30T06:14:40;16.40;99.90
15700;DHT22;7950;42.744;23.174;2023-09-30T06:17:10;16.60;99.90
15700;DHT22;7950;42.744;23.174;2023-09-30T06:19:39;16.90;99.90
15700;DHT22;7950;42.744;23.174;2023-09-30T06:22:09;17.00;99.90
15700;DHT22;7950;42.744;23.174;2023-09-30T06:24:37;17.20;99.90
15700;DHT22;7950;42.744;23.174;2023-09-30T06:27:06;17.40;99.90
15700;DHT22;7950;42.744;23.174;2023-09-30T06:29:40;17.60;99.90
15700;DHT22;7950;42.744;23.174;2023-09-30T06:32:09;17.80;99.90
15700;DHT22;7950;42.744;23.174;2023-09-30T06:34:38;17.90;99.90
15700;DHT22;7950;42.744;23.174;2023-09-30T06:37:09;18.10;99.90
15700;DHT22;7950;42.744;23.174;2023-09-30T06:39:39;18.30;99.90
15700;DHT22;7950;42.744;23.174;2023-09-30T06:42:08;18.50;99.90
15700;DHT22;7950;42.744;23.174;2023-09-30T06:44:36;18.60;98.20
15700;DHT22;7950;42.744;23.174;2023-09-30T06:47:05;18.80;96.10
15700;DHT22;7950;42.744;23.174;2023-09-30T06:49:39;19.00;95.50
15700;DHT22;7950;42.744;23.174;2023-09-30T06:52:09;19.20;92.80
15700;DHT22;7950;42.744;23.174;2023-09-30T06:54:38;19.50;91.50
15700;DHT22;7950;42.744;23.174;2023-09-30T06:57:06;19.60;90.10
15700;DHT22;7950;42.744;23.174;2023-09-30T06:59:36;19.70;89.10
15700;DHT22;7950;42.744;23.174;2023-09-30T07:02:05;19.90;86.50
15700;DHT22;7950;42.744;23.174;2023-09-30T07:04:34;20.10;86.70
15700;DHT22;7950;42.744;23.174;2023-09-30T07:07:03;20.30;86.40
15700;DHT22;7950;42.744;23.174;2023-09-30T07:09:34;20.50;84.80
15700;DHT22;7950;42.744;23.174;2023-09-30T07:12:04;20.60;85.00
15700;DHT22;7950;42.744;23.174;2023-09-30T07:14:32;20.80;82.10
15700;DHT22;7950;42.744;23.174;2023-09-30T07:17:01;20.90;79.40
15700;DHT22;7950;42.744;23.174;2023-09-30T07:19:32;21.00;78.50
15700;DHT22;7950;42.744;23.174;2023-09-30T07:22:02;21.20;76.20
15700;DHT22;7950;42.744;23.174;2023-09-30T07:24:31;21.20;75.90
15700;DHT22;7950;42.744;23.174;2023-09-30T07:27:01;21.30;74.70
15700;DHT22;7950;42.744;23.174;2023-09-30T07:29:47;21.40;73.80
15700;DHT22;7950;42.744;23.174;2023-09-30T07:32:16;21.50;72.80
15700;DHT22;7950;42.744;23.174;2023-09-30T07:34:45;21.70;72.20
15700;DHT22;7950;42.744;23.174;2023-09-30T07:37:13;21.80;69.90
15700;DHT22;7950;42.744;23.174;2023-09-30T07:39:44;21.90;69.60
15700;DHT22;7950;42.744;23.174;2023-09-30T07:42:15;21.90;69.90
15700;DHT22;7950;42.744;23.174;2023-09-30T07:44:46;22.10;69.50
15700;DHT22;7950;42.744;23.174;2023-09-30T07:47:14;22.30;66.70
15700;DHT22;7950;42.744;23.174;2023-09-30T07:49:43;22.50;65.50
15700;DHT22;7950;42.744;23.174;2023-09-30T07:52:12;22.70;64.30
15700;DHT22;7950;42.744;23.174;2023-09-30T07:54:40;22.80;63.70
15700;DHT22;7950;42.744;23.174;2023-09-30T07:57:09;23.00;61.90
15700;DHT22;7950;42.744;23.174;2023-09-30T07:59:39;23.10;61.70
15700;DHT22;7950;42.744;23.174;2023-09-30T08:02:08;23.20;62.10
15700;DHT22;7950;42.744;23.174;2023-09-30T08:04:36;23.40;60.80
15700;DHT22;7950;42.744;23.174;2023-09-30T08:07:05;23.70;59.40
15700;DHT22;7950;42.744;23.174;2023-09-30T08:09:36;23.90;58.50
15700;DHT22;7950;42.744;23.174;2023-09-30T08:12:05;23.80;58.40
15700;DHT22;7950;42.744;23.174;2023-09-30T08:14:34;24.00;58.30
15700;DHT22;7950;42.744;23.174;2023-09-30T08:17:04;24.20;57.20
15700;DHT22;7950;42.744;23.174;2023-09-30T08:19:33;24.30;55.30
15700;DHT22;7950;42.744;23.174;2023-09-30T08:22:02;24.40;55.80
15700;DHT22;7950;42.744;23.174;2023-09-30T08:24:31;24.50;55.70
15700;DHT22;7950;42.744;23.174;2023-09-30T08:26:59;24.70;54.30
15700;DHT22;7950;42.744;23.174;2023-09-30T08:29:28;24.80;51.80
15700;DHT22;7950;42.744;23.174;2023-09-30T08:31:57;24.90;51.10
15700;DHT22;7950;42.744;23.174;2023-09-30T08:34:27;25.00;51.70
15700;DHT22;7950;42.744;23.174;2023-09-30T08:36:56;25.20;50.00
15700;DHT22;7950;42.744;23.174;2023-09-30T08:39:25;25.30;49.00
15700;DHT22;7950;42.744;23.174;2023-09-30T08:41:55;25.30;47.00
15700;DHT22;7950;42.744;23.174;2023-09-30T08:44:25;25.30;47.60
15700;DHT22;7950;42.744;23.174;2023-09-30T08:46:55;25.20;46.40
15700;DHT22;7950;42.744;23.174;2023-09-30T08:49:26;25.10;46.80
15700;DHT22;7950;42.744;23.174;2023-09-30T08:51:57;25.10;46.90
15700;DHT22;7950;42.744;23.174;2023-09-30T08:54:31;25.20;46.30
15700;DHT22;7950;42.744;23.174;2023-09-30T08:57:00;25.20;47.00
15700;DHT22;7950;42.744;23.174;2023-09-30T08:59:31;25.30;47.10
15700;DHT22;7950;42.744;23.174;2023-09-30T09:02:08;25.30;46.80
15700;DHT22;7950;42.744;23.174;2023-09-30T09:04:39;25.40;45.70
15700;DHT22;7950;42.744;23.174;2023-09-30T09:07:09;25.50;45.30
15700;DHT22;7950;42.744;23.174;2023-09-30T09:09:38;25.50;45.10
15700;DHT22;7950;42.744;23.174;2023-09-30T09:12:17;25.50;45.20
15700;DHT22;7950;42.744;23.174;2023-09-30T09:14:47;25.30;45.30
15700;DHT22;7950;42.744;23.174;2023-09-30T09:17:20;25.30;44.80
15700;DHT22;7950;42.744;23.174;2023-09-30T09:19:59;25.30;44.80
15700;DHT22;7950;42.744;23.174;2023-09-30T09:22:42;25.30;45.00
15700;DHT22;7950;42.744;23.174;2023-09-30T09:25:12;25.20;45.40
15700;DHT22;7950;42.744;23.174;2023-09-30T09:27:41;25.20;45.50
15700;DHT22;7950;42.744;23.174;2023-09-30T09:30:18;25.30;45.40
15700;DHT22;7950;42.744;23.174;2023-09-30T09:32:52;25.50;45.30
15700;DHT22;7950;42.744;23.174;2023-09-30T09:35:24;25.60;44.10
15700;DHT22;7950;42.744;23.174;2023-09-30T09:37:57;25.60;43.90
15700;DHT22;7950;42.744;23.174;2023-09-30T09:40:28;25.40;43.50
15700;DHT22;7950;42.744;23.174;2023-09-30T09:42:59;25.10;45.10
15700;DHT22;7950;42.744;23.174;2023-09-30T09:45:33;25.20;44.20
15700;DHT22;7950;42.744;23.174;2023-09-30T09:48:04;25.30;44.10
15700;DHT22;7950;42.744;23.174;2023-09-30T09:50:36;25.50;43.60
15700;DHT22;7950;42.744;23.174;2023-09-30T09:53:05;25.70;44.10
15700;DHT22;7950;42.744;23.174;2023-09-30T09:55:36;25.80;43.10
15700;DHT22;7950;42.744;23.174;2023-09-30T09:58:08;25.70;43.30
15700;DHT22;7950;42.744;23.174;2023-09-30T10:00:38;25.80;43.30
15700;DHT22;7950;42.744;23.174;2023-09-30T10:03:07;25.80;43.40
15700;DHT22;7950;42.744;23.174;2023-09-30T10:05:38;25.80;43.70
15700;DHT22;7950;42.744;23.174;2023-09-30T10:08:13;25.70;42.90
15700;DHT22;7950;42.744;23.174;2023-09-30T10:10:44;25.60;42.70
15700;DHT22;7950;42.744;23.174;2023-09-30T10:16:49;25.80;43.50
15700;DHT22;7950;42.744;23.174;2023-09-30T10:19:20;26.00;42.70
15700;DHT22;7950;42.744;23.174;2023-09-30T10:22:26;26.10;42.60
15700;DHT22;7950;42.744;23.174;2023-09-30T10:24:56;26.30;43.00
15700;DHT22;7950;42.744;23.174;2023-09-30T10:27:34;26.20;40.90
15700;DHT22;7950;42.744;23.174;2023-09-30T10:30:09;26.00;41.00
15700;DHT22;7950;42.744;23.174;2023-09-30T10:33:09;25.80;41.60
15700;DHT22;7950;42.744;23.174;2023-09-30T10:35:45;25.80;41.70
15700;DHT22;7950;42.744;23.174;2023-09-30T10:38:39;25.90;41.30
15700;DHT22;7950;42.744;23.174;2023-09-30T10:41:09;25.90;40.80
15700;DHT22;7950;42.744;23.174;2023-09-30T10:43:40;25.80;40.10
15700;DHT22;7950;42.744;23.174;2023-09-30T10:46:32;25.60;40.80
15700;DHT22;7950;42.744;23.174;2023-09-30T10:49:30;25.60;40.80
15700;DHT22;7950;42.744;23.174;2023-09-30T10:52:06;25.70;41.30
15700;DHT22;7950;42.744;23.174;2023-09-30T10:54:37;25.80;41.00
15700;DHT22;7950;42.744;23.174;2023-09-30T10:57:10;25.90;40.70
15700;DHT22;7950;42.744;23.174;2023-09-30T10:59:41;25.90;39.50
15700;DHT22;7950;42.744;23.174;2023-09-30T11:02:19;25.80;39.70
15700;DHT22;7950;42.744;23.174;2023-09-30T11:04:48;25.70;39.70
15700;DHT22;7950;42.744;23.174;2023-09-30T11:07:23;25.80;40.00
15700;DHT22;7950;42.744;23.174;2023-09-30T11:09:55;25.70;39.50
15700;DHT22;7950;42.744;23.174;2023-09-30T11:12:25;25.60;39.80
15700;DHT22;7950;42.744;23.174;2023-09-30T11:14:59;25.60;39.60
15700;DHT22;7950;42.744;23.174;2023-09-30T11:17:29;25.50;39.80
15700;DHT22;7950;42.744;23.174;2023-09-30T11:19:58;25.50;40.30
15700;DHT22;7950;42.744;23.174;2023-09-30T11:22:27;25.30;40.40
15700;DHT22;7950;42.744;23.174;2023-09-30T11:24:58;25.50;40.40
15700;DHT22;7950;42.744;23.174;2023-09-30T11:27:29;25.60;39.80
15700;DHT22;7950;42.744;23.174;2023-09-30T11:30:02;25.70;39.90
15700;DHT22;7950;42.744;23.174;2023-09-30T11:32:31;25.70;39.90
15700;DHT22;7950;42.744;23.174;2023-09-30T11:35:02;25.80;39.60
15700;DHT22;7950;42.744;23.174;2023-09-30T11:37:32;25.90;40.70
15700;DHT22;7950;42.744;23.174;2023-09-30T11:40:14;26.20;40.60
15700;DHT22;7950;42.744;23.174;2023-09-30T11:43:08;26.40;40.10
15700;DHT22;7950;42.744;23.174;2023-09-30T11:45:39;26.60;39.40
15700;DHT22;7950;42.744;23.174;2023-09-30T11:48:17;26.60;38.80
15700;DHT22;7950;42.744;23.174;2023-09-30T11:50:49;26.50;38.60
15700;DHT22;7950;42.744;23.174;2023-09-30T11:53:20;26.40;38.90
15700;DHT22;7950;42.744;23.174;2023-09-30T11:55:51;26.10;38.80
15700;DHT22;7950;42.744;23.174;2023-09-30T11:58:23;25.80;38.90
15700;DHT22;7950;42.744;23.174;2023-09-30T12:00:54;25.60;39.50
15700;DHT22;7950;42.744;23.174;2023-09-30T12:03:24;25.30;39.20
15700;DHT22;7950;42.744;23.174;2023-09-30T12:05:57;25.30;39.70
15700;DHT22;7950;42.744;23.174;2023-09-30T12:08:27;25.40;39.70
15700;DHT22;7950;42.744;23.174;2023-09-30T12:10:58;25.50;40.10
15700;DHT22;7950;42.744;23.174;2023-09-30T12:13:27;25.60;39.30
15700;DHT22;7950;42.744;23.174;2023-09-30T12:15:57;25.60;39.40
15700;DHT22;7950;42.744;23.174;2023-09-30T12:18:27;25.60;39.00
15700;DHT22;7950;42.744;23.174;2023-09-30T12:20:56;25.50;38.90
15700;DHT22;7950;42.744;23.174;2023-09-30T12:23:26;25.50;39.30
15700;DHT22;7950;42.744;23.174;2023-09-30T12:25:58;25.50;39.10
15700;DHT22;7950;42.744;23.174;2023-09-30T12:28:40;25.60;39.70
15700;DHT22;7950;42.744;23.174;2023-09-30T12:31:09;25.70;39.20
15700;DHT22;7950;42.744;23.174;2023-09-30T12:33:38;25.60;39.20
15700;DHT22;7950;42.744;23.174;2023-09-30T12:36:07;25.50;39.50
15700;DHT22;7950;42.744;23.174;2023-09-30T12:38:37;25.50;39.90
15700;DHT22;7950;42.744;23.174;2023-09-30T12:41:08;25.60;39.40
15700;DHT22;7950;42.744;23.174;2023-09-30T12:43:37;25.60;39.20
15700;DHT22;7950;42.744;23.174;2023-09-30T12:46:09;25.70;39.50
15700;DHT22;7950;42.744;23.174;2023-09-30T12:48:40;25.90;39.00
15700;DHT22;7950;42.744;23.174;2023-09-30T12:51:09;25.90;38.80
15700;DHT22;7950;42.744;23.174;2023-09-30T12:53:38;25.90;38.60
15700;DHT22;7950;42.744;23.174;2023-09-30T12:56:08;26.10;38.50
15700;DHT22;7950;42.744;23.174;2023-09-30T12:58:38;26.10;38.30
15700;DHT22;7950;42.744;23.174;2023-09-30T13:01:06;26.20;37.60
15700;DHT22;7950;42.744;23.174;2023-09-30T13:03:49;26.10;37.90
15700;DHT22;7950;42.744;23.174;2023-09-30T13:06:19;25.90;38.50
15700;DHT22;7950;42.744;23.174;2023-09-30T13:08:48;25.80;38.40
15700;DHT22;7950;42.744;23.174;2023-09-30T13:11:18;25.70;38.90
15700;DHT22;7950;42.744;23.174;2023-09-30T13:13:47;25.80;39.20
15700;DHT22;7950;42.744;23.174;2023-09-30T13:16:15;25.80;38.90
15700;DHT22;7950;42.744;23.174;2023-09-30T13:18:44;25.90;39.00
15700;DHT22;7950;42.744;23.174;2023-09-30T13:21:15;26.00;39.50
15700;DHT22;7950;42.744;23.174;2023-09-30T13:23:51;26.10;39.20
15700;DHT22;7950;42.744;23.174;2023-09-30T13:26:21;26.00;39.10
15700;DHT22;7950;42.744;23.174;2023-09-30T13:28:51;26.00;38.40
15700;DHT22;7950;42.744;23.174;2023-09-30T13:31:19;25.90;38.80
15700;DHT22;7950;42.744;23.174;2023-09-30T13:33:48;26.00;38.50
15700;DHT22;7950;42.744;23.174;2023-09-30T13:36:17;26.00;38.10
15700;DHT22;7950;42.744;23.174;2023-09-30T13:38:47;25.80;38.10
15700;DHT22;7950;42.744;23.174;2023-09-30T13:41:17;25.60;39.10
15700;DHT22;7950;42.744;23.174;2023-09-30T13:43:48;25.50;39.20
15700;DHT22;7950;42.744;23.174;2023-09-30T13:46:16;25.40;39.40
15700;DHT22;7950;42.744;23.174;2023-09-30T13:48:45;25.30;39.80
15700;DHT22;7950;42.744;23.174;2023-09-30T13:51:19;25.30;39.70
15700;DHT22;7950;42.744;23.174;2023-09-30T13:53:48;25.30;39.40
15700;DHT22;7950;42.744;23.174;2023-09-30T13:56:16;25.30;38.90
15700;DHT22;7950;42.744;23.174;2023-09-30T13:58:48;25.20;39.60
15700;DHT22;7950;42.744;23.174;2023-09-30T14:01:17;25.00;39.90
15700;DHT22;7950;42.744;23.174;2023-09-30T14:03:47;24.80;39.50
15700;DHT22;7950;42.744;23.174;2023-09-30T14:06:16;24.70;40.30
15700;DHT22;7950;42.744;23.174;2023-09-30T14:08:46;24.70;40.50
15700;DHT22;7950;42.744;23.174;2023-09-30T14:11:15;24.80;40.60
15700;DHT22;7950;42.744;23.174;2023-09-30T14:13:47;24.70;41.10
15700;DHT22;7950;42.744;23.174;2023-09-30T14:16:16;24.50;41.70
15700;DHT22;7950;42.744;23.174;2023-09-30T14:18:45;24.40;41.90
15700;DHT22;7950;42.744;23.174;2023-09-30T14:21:15;24.40;41.90
15700;DHT22;7950;42.744;23.174;2023-09-30T14:23:46;24.50;42.30
15700;DHT22;7950;42.744;23.174;2023-09-30T14:26:16;24.60;42.20
15700;DHT22;7950;42.744;23.174;2023-09-30T14:28:45;24.60;42.00
15700;DHT22;7950;42.744;23.174;2023-09-30T14:31:16;24.70;41.80
15700;DHT22;7950;42.744;23.174;2023-09-30T14:33:45;24.80;40.70
15700;DHT22;7950;42.744;23.174;2023-09-30T14:36:14;24.80;40.60
15700;DHT22;7950;42.744;23.174;2023-09-30T14:38:45;24.80;40.40
15700;DHT22;7950;42.744;23.174;2023-09-30T14:41:30;24.70;40.90
15700;DHT22;7950;42.744;23.174;2023-09-30T14:43:59;24.50;41.10
15700;DHT22;7950;42.744;23.174;2023-09-30T14:46:32;24.40;41.70
15700;DHT22;7950;42.744;23.174;2023-09-30T14:49:01;24.30;42.20
15700;DHT22;7950;42.744;23.174;2023-09-30T14:51:33;24.10;42.60
15700;DHT22;7950;42.744;23.174;2023-09-30T14:54:03;24.00;43.00
15700;DHT22;7950;42.744;23.174;2023-09-30T14:56:32;24.00;43.70
15700;DHT22;7950;42.744;23.174;2023-09-30T14:59:01;24.00;43.10
15700;DHT22;7950;42.744;23.174;2023-09-30T15:01:32;23.90;43.50
15700;DHT22;7950;42.744;23.174;2023-09-30T15:04:01;23.90;43.20
15700;DHT22;7950;42.744;23.174;2023-09-30T15:06:31;23.80;43.30
15700;DHT22;7950;42.744;23.174;2023-09-30T15:09:02;23.80;43.50
15700;DHT22;7950;42.744;23.174;2023-09-30T15:11:31;23.80;43.50
15700;DHT22;7950;42.744;23.174;2023-09-30T15:14:00;23.80;43.70
15700;DHT22;7950;42.744;23.174;2023-09-30T15:16:29;23.80;44.30
15700;DHT22;7950;42.744;23.174;2023-09-30T15:18:59;23.70;44.60
15700;DHT22;7950;42.744;23.174;2023-09-30T15:21:28;23.70;45.10
15700;DHT22;7950;42.744;23.174;2023-09-30T15:23:57;23.60;44.10
15700;DHT22;7950;42.744;23.174;2023-09-30T15:26:28;23.60;44.30
15700;DHT22;7950;42.744;23.174;2023-09-30T15:28:56;23.50;44.90
15700;DHT22;7950;42.744;23.174;2023-09-30T15:31:27;23.40;45.20
15700;DHT22;7950;42.744;23.174;2023-09-30T15:33:57;23.40;45.60
15700;DHT22;7950;42.744;23.174;2023-09-30T15:36:27;23.30;45.80
15700;DHT22;7950;42.744;23.174;2023-09-30T15:38:56;23.20;45.70
15700;DHT22;7950;42.744;23.174;2023-09-30T15:41:24;23.00;45.80
15700;DHT22;7950;42.744;23.174;2023-09-30T15:43:54;23.00;45.80
15700;DHT22;7950;42.744;23.174;2023-09-30T15:46:26;22.90;46.20
15700;DHT22;7950;42.744;23.174;2023-09-30T15:48:55;22.80;46.40
15700;DHT22;7950;42.744;23.174;2023-09-30T15:51:26;22.60;46.80
15700;DHT22;7950;42.744;23.174;2023-09-30T15:53:55;22.50;47.20
15700;DHT22;7950;42.744;23.174;2023-09-30T15:56:24;22.30;47.60